| time (UTC) | temp C | wind direction | speed KPH | gust KPH | rain 1hr cm | rain 24hr cm | rain mn cm | humidity % | barometer mb |
| 20260906073432 | 24 | 207 | 1.6 | 4.8 | 0.00 | 0.00 | 0.00 | 69 | 1020.6 |
| 20260906072926 | 24 | 204 | 1.6 | 3.2 | 0.00 | 0.00 | 0.00 | 70 | 1020.5 |
| 20260906072431 | 23 | 204 | 1.6 | 3.2 | 0.00 | 0.00 | 0.00 | 69 | 1020.5 |
| 20260906071925 | 23 | 202 | 1.6 | 3.2 | 0.00 | 0.00 | 0.00 | 68 | 1020.5 |
| 20260906071419 | 23 | 202 | 1.6 | 4.8 | 0.00 | 0.00 | 0.00 | 71 | 1020.5 |
| 20260906070940 | 23 | 201 | 1.6 | 4.8 | 0.00 | 0.00 | 0.00 | 71 | 1020.5 |
| 20260906065902 | 22 | 193 | 3.2 | 4.8 | 0.00 | 0.00 | 0.00 | 72 | 1020.5 |
| 20260906065400 | 22 | 184 | 1.6 | 4.8 | 0.00 | 0.00 | 0.00 | 72 | 1020.5 |
| 20260906064929 | 22 | 164 | 1.6 | 4.8 | 0.00 | 0.00 | 0.00 | 75 | 1020.4 |
| 20260906063900 | 21 | 163 | 1.6 | 3.2 | 0.00 | 0.00 | 0.00 | 77 | 1020.4 |
| 20260906063348 | 21 | 163 | 1.6 | 4.8 | 0.00 | 0.00 | 0.00 | 78 | 1020.4 |
| 20260906062841 | 20 | 159 | 1.6 | 4.8 | 0.00 | 0.00 | 0.00 | 78 | 1020.5 |
| 20260906062331 | 20 | 120 | 0.0 | 3.2 | 0.00 | 0.00 | 0.00 | 82 | 1020.5 |
| 20260906061818 | 20 | 120 | 0.0 | 3.2 | 0.00 | 0.00 | 0.00 | 83 | 1020.5 |
| 20260906061311 | 19 | 120 | 0.0 | 0.0 | 0.00 | 0.00 | 0.00 | 85 | 1020.4 |
| 20260906060802 | 19 | 121 | 0.0 | 0.0 | 0.00 | 0.00 | 0.00 | 86 | 1020.4 |
| 20260906060252 | 18 | 120 | 0.0 | 0.0 | 0.00 | 0.00 | 0.00 | 87 | 1020.3 |
| 20260906055742 | 18 | 120 | 0.0 | 0.0 | 0.00 | 0.00 | 0.00 | 86 | 1020.3 |
| 20260906055306 | 18 | 121 | 0.0 | 0.0 | 0.00 | 0.00 | 0.00 | 87 | 1020.3 |
| 20260906054240 | 18 | 120 | 0.0 | 0.0 | 0.00 | 0.00 | 0.00 | 89 | 1020.2 |
| 20260906053727 | 18 | 120 | 0.0 | 0.0 | 0.00 | 0.00 | 0.00 | 89 | 1020.1 |
| 20260906053218 | 18 | 120 | 0.0 | 0.0 | 0.00 | 0.00 | 0.00 | 88 | 1020.1 |
| 20260906052712 | 18 | 120 | 0.0 | 0.0 | 0.00 | 0.00 | 0.00 | 88 | 1020.1 |
| 20260906052200 | 18 | 120 | 0.0 | 0.0 | 0.00 | 0.00 | 0.00 | 87 | 1020.1 |
| 20260906051653 | 18 | 121 | 0.0 | 0.0 | 0.00 | 0.00 | 0.00 | 88 | 1020.0 |
| 20260906051145 | 18 | 120 | 0.0 | 0.0 | 0.00 | 0.00 | 0.00 | 88 | 1020.1 |
| 20260906050630 | 18 | 121 | 0.0 | 0.0 | 0.00 | 0.00 | 0.00 | 87 | 1020.0 |
| 20260906050122 | 18 | 121 | 0.0 | 0.0 | 0.00 | 0.00 | 0.00 | 87 | 1020.0 |
| 20260906045617 | 18 | 120 | 0.0 | 0.0 | 0.00 | 0.00 | 0.00 | 87 | 1019.9 |
| 20260906045113 | 18 | 120 | 0.0 | 0.0 | 0.00 | 0.00 | 0.00 | 86 | 1020.0 |
| 20260906044726 | 18 | 121 | 0.0 | 0.0 | 0.00 | 0.00 | 0.00 | 86 | 1019.8 |
| 20260906042538 | 18 | 120 | 0.0 | 0.0 | 0.00 | 0.00 | 0.00 | 84 | 1019.8 |
| 20260906042040 | 18 | 121 | 0.0 | 0.0 | 0.00 | 0.00 | 0.00 | 83 | 1019.8 |
| 20260906041538 | 18 | 120 | 0.0 | 0.0 | 0.00 | 0.00 | 0.00 | 83 | 1019.7 |
| 20260906041102 | 18 | 121 | 0.0 | 0.0 | 0.00 | 0.00 | 0.00 | 83 | 1019.7 |
| 20260906040018 | 18 | 120 | 0.0 | 0.0 | 0.00 | 0.00 | 0.00 | 83 | 1019.8 |
| 20260906035508 | 19 | 120 | 0.0 | 0.0 | 0.00 | 0.00 | 0.00 | 82 | 1019.7 |
| 20260906035023 | 19 | 121 | 0.0 | 0.0 | 0.00 | 0.00 | 0.00 | 81 | 1019.7 |
| 20260906033954 | 19 | 121 | 0.0 | 0.0 | 0.00 | 0.00 | 0.00 | 81 | 1019.6 |
| 20260906033452 | 19 | 120 | 0.0 | 0.0 | 0.00 | 0.00 | 0.00 | 80 | 1019.6 |
| 20260906032947 | 19 | 121 | 0.0 | 0.0 | 0.00 | 0.00 | 0.00 | 80 | 1019.6 |
| 20260906032438 | 19 | 121 | 0.0 | 0.0 | 0.00 | 0.00 | 0.00 | 79 | 1019.6 |
| 20260906031930 | 19 | 120 | 0.0 | 0.0 | 0.00 | 0.00 | 0.00 | 79 | 1019.5 |
| 20260906031419 | 19 | 120 | 0.0 | 0.0 | 0.00 | 0.00 | 0.00 | 79 | 1019.5 |
| 20260906030921 | 20 | 120 | 0.0 | 0.0 | 0.00 | 0.00 | 0.00 | 79 | 1019.6 |
| 20260906030416 | 20 | 121 | 0.0 | 0.0 | 0.00 | 0.00 | 0.00 | 79 | 1019.5 |
| 20260906025915 | 19 | 120 | 0.0 | 0.0 | 0.00 | 0.00 | 0.00 | 79 | 1019.6 |
| 20260906025405 | 19 | 120 | 0.0 | 0.0 | 0.00 | 0.00 | 0.00 | 80 | 1019.5 |
| 20260906024858 | 19 | 120 | 0.0 | 0.0 | 0.00 | 0.00 | 0.00 | 80 | 1019.5 |
| 20260906024347 | 19 | 121 | 0.0 | 0.0 | 0.00 | 0.00 | 0.00 | 81 | 1019.5 |
| 20260906023841 | 19 | 121 | 0.0 | 0.0 | 0.00 | 0.00 | 0.00 | 81 | 1019.5 |
| 20260906023332 | 19 | 121 | 0.0 | 0.0 | 0.00 | 0.00 | 0.00 | 81 | 1019.6 |
| 20260906022826 | 19 | 120 | 0.0 | 0.0 | 0.00 | 0.00 | 0.00 | 81 | 1019.5 |
| 20260906022331 | 19 | 120 | 0.0 | 0.0 | 0.00 | 0.00 | 0.00 | 81 | 1019.5 |
| 20260906021824 | 19 | 120 | 0.0 | 0.0 | 0.00 | 0.00 | 0.00 | 81 | 1019.6 |
| 20260906021326 | 19 | 120 | 0.0 | 0.0 | 0.00 | 0.00 | 0.00 | 80 | 1019.6 |
| 20260906020824 | 19 | 121 | 0.0 | 0.0 | 0.00 | 0.00 | 0.00 | 80 | 1019.6 |
| 20260906020314 | 19 | 120 | 0.0 | 0.0 | 0.00 | 0.00 | 0.00 | 80 | 1019.7 |
| 20260906015803 | 19 | 120 | 0.0 | 0.0 | 0.00 | 0.00 | 0.00 | 80 | 1019.7 |
| 20260906015254 | 19 | 121 | 0.0 | 0.0 | 0.00 | 0.00 | 0.00 | 80 | 1019.7 |
| 20260906014746 | 19 | 121 | 0.0 | 0.0 | 0.00 | 0.00 | 0.00 | 80 | 1019.7 |
| 20260906014245 | 19 | 120 | 0.0 | 0.0 | 0.00 | 0.00 | 0.00 | 80 | 1019.7 |
| 20260906013801 | 20 | 120 | 0.0 | 0.0 | 0.00 | 0.00 | 0.00 | 79 | 1019.6 |
| 20260906013242 | 20 | 120 | 0.0 | 0.0 | 0.00 | 0.00 | 0.00 | 78 | 1019.8 |
| 20260906012751 | 20 | 120 | 0.0 | 0.0 | 0.00 | 0.00 | 0.00 | 77 | 1019.8 |
| 20260906011736 | 20 | 120 | 0.0 | 0.0 | 0.00 | 0.00 | 0.00 | 77 | 1019.8 |
| 20260906010655 | 21 | 120 | 0.0 | 0.0 | 0.00 | 0.00 | 0.00 | 77 | 1019.8 |
| 20260906010157 | 21 | 120 | 0.0 | 0.0 | 0.00 | 0.00 | 0.00 | 77 | 1019.8 |
| 20260906005654 | 21 | 120 | 0.0 | 0.0 | 0.00 | 0.00 | 0.00 | 76 | 1019.8 |
| 20260906005213 | 21 | 121 | 0.0 | 0.0 | 0.00 | 0.00 | 0.00 | 76 | 1019.7 |
| 20260906004132 | 21 | 121 | 0.0 | 0.0 | 0.00 | 0.00 | 0.00 | 76 | 1019.7 |
| 20260906003624 | 21 | 121 | 0.0 | 0.0 | 0.00 | 0.00 | 0.00 | 75 | 1019.7 |
| 20260906003114 | 21 | 121 | 0.0 | 0.0 | 0.00 | 0.00 | 0.00 | 75 | 1019.6 |
| 20260906002612 | 21 | 120 | 0.0 | 0.0 | 0.00 | 0.00 | 0.00 | 74 | 1019.6 |
| 20260906002111 | 21 | 121 | 0.0 | 0.0 | 0.00 | 0.00 | 0.00 | 74 | 1019.6 |
| 20260906001610 | 21 | 120 | 0.0 | 0.0 | 0.00 | 0.00 | 0.00 | 72 | 1019.6 |
| 20260906001123 | 21 | 121 | 0.0 | 0.0 | 0.00 | 0.00 | 0.00 | 71 | 1019.5 |
| 20260906000044 | 21 | 120 | 0.0 | 0.0 | 0.00 | 0.00 | 0.00 | 70 | 1019.5 |
| 20260905235537 | 21 | 120 | 0.0 | 0.0 | 0.00 | 0.00 | 0.00 | 71 | 1019.5 |
| 20260905235025 | 21 | 121 | 0.0 | 4.8 | 0.00 | 0.00 | 0.00 | 72 | 1019.6 |
| 20260905234540 | 22 | 121 | 1.6 | 4.8 | 0.00 | 0.00 | 0.00 | 72 | 1019.6 |
| 20260905233501 | 22 | 120 | 4.8 | 8.0 | 0.00 | 0.00 | 0.00 | 73 | 1019.6 |
| 20260905232954 | 22 | 120 | 3.2 | 6.4 | 0.00 | 0.00 | 0.00 | 74 | 1019.6 |
| 20260905232444 | 22 | 120 | 1.6 | 4.8 | 0.00 | 0.00 | 0.00 | 72 | 1019.7 |
| 20260905231940 | 22 | 120 | 1.6 | 3.2 | 0.00 | 0.00 | 0.00 | 73 | 1019.7 |
| 20260905231440 | 22 | 120 | 1.6 | 4.8 | 0.00 | 0.00 | 0.00 | 74 | 1019.7 |
| 20260905231011 | 22 | 120 | 1.6 | 4.8 | 0.00 | 0.00 | 0.00 | 73 | 1019.8 |
| 20260905225939 | 22 | 120 | 0.0 | 1.6 | 0.00 | 0.00 | 0.00 | 74 | 1019.7 |
| 20260905225437 | 22 | 120 | 0.0 | 3.2 | 0.00 | 0.00 | 0.00 | 74 | 1019.7 |
| 20260905224943 | 22 | 120 | 3.2 | 6.4 | 0.00 | 0.00 | 0.00 | 73 | 1019.6 |
| 20260905223921 | 21 | 120 | 3.2 | 6.4 | 0.00 | 0.00 | 0.00 | 77 | 1019.5 |
| 20260905223534 | 22 | 120 | 3.2 | 4.8 | 0.00 | 0.00 | 0.00 | 78 | 1019.5 |
| 20260905222915 | 22 | 120 | 3.2 | 4.8 | 0.00 | 0.00 | 0.00 | 78 | 1019.5 |
| 20260905222409 | 22 | 119 | 3.2 | 6.4 | 0.00 | 0.00 | 0.00 | 78 | 1019.6 |
| 20260905221922 | 22 | 117 | 3.2 | 6.4 | 0.00 | 0.00 | 0.00 | 78 | 1019.6 |
| 20260905220854 | 22 | 0 | 1.6 | 3.2 | 0.00 | 0.00 | 0.00 | 77 | 1019.5 |
| 20260905220354 | 22 | 344 | 0.0 | 1.6 | 0.00 | 0.00 | 0.00 | 77 | 1019.5 |
| 20260905215856 | 22 | 344 | 0.0 | 3.2 | 0.00 | 0.00 | 0.00 | 77 | 1019.5 |
| 20260905215347 | 22 | 344 | 3.2 | 8.0 | 0.00 | 0.00 | 0.00 | 78 | 1019.4 |
| 20260905214857 | 22 | 342 | 4.8 | 8.0 | 0.00 | 0.00 | 0.00 | 78 | 1019.3 |
| 20260905213831 | 22 | 98 | 1.6 | 3.2 | 0.00 | 0.00 | 0.00 | 77 | 1019.3 |
| 20260905213326 | 22 | 98 | 1.6 | 4.8 | 0.00 | 0.00 | 0.00 | 77 | 1019.2 |
| 20260905212823 | 23 | 105 | 1.6 | 4.8 | 0.00 | 0.00 | 0.00 | 77 | 1019.1 |
| 20260905212325 | 23 | 136 | 0.0 | 3.2 | 0.00 | 0.00 | 0.00 | 76 | 1019.1 |
| 20260905211820 | 23 | 138 | 0.0 | 1.6 | 0.00 | 0.00 | 0.00 | 75 | 1019.2 |
| 20260905211320 | 23 | 138 | 0.0 | 1.6 | 0.00 | 0.00 | 0.00 | 73 | 1019.1 |
| 20260905210823 | 23 | 138 | 0.0 | 3.2 | 0.00 | 0.00 | 0.00 | 72 | 1019.1 |
| 20260905205753 | 23 | 138 | 0.0 | 1.6 | 0.00 | 0.00 | 0.00 | 72 | 1019.1 |
| 20260905205308 | 23 | 138 | 0.0 | 1.6 | 0.00 | 0.00 | 0.00 | 72 | 1019.1 |
| 20260905204332 | 23 | 138 | 1.6 | 4.8 | 0.00 | 0.00 | 0.00 | 69 | 1019.1 |
| 20260905202720 | 24 | 142 | 0.0 | 3.2 | 0.00 | 0.00 | 0.00 | 68 | 1019.0 |
| 20260905202225 | 24 | 144 | 0.0 | 3.2 | 0.00 | 0.00 | 0.00 | 67 | 1018.9 |
| 20260905201723 | 24 | 144 | 0.0 | 3.2 | 0.00 | 0.00 | 0.00 | 66 | 1018.9 |
| 20260905201215 | 24 | 120 | 0.0 | 3.2 | 0.00 | 0.00 | 0.00 | 64 | 1018.9 |
| 20260905200708 | 24 | 120 | 0.0 | 3.2 | 0.00 | 0.00 | 0.00 | 64 | 1018.9 |
| 20260905200157 | 25 | 120 | 0.0 | 3.2 | 0.00 | 0.00 | 0.00 | 65 | 1018.7 |
| 20260905195656 | 25 | 120 | 0.0 | 3.2 | 0.00 | 0.00 | 0.00 | 65 | 1018.7 |
| 20260905195218 | 25 | 120 | 1.6 | 4.8 | 0.00 | 0.00 | 0.00 | 66 | 1018.7 |
| 20260905194206 | 25 | 177 | 3.2 | 9.7 | 0.00 | 0.00 | 0.00 | 65 | 1018.9 |
| 20260905193126 | 25 | 281 | 3.2 | 6.4 | 0.00 | 0.00 | 0.00 | 68 | 1018.9 |
| 20260905192656 | 25 | 309 | 3.2 | 8.0 | 0.00 | 0.00 | 0.00 | 67 | 1018.7 |
| 20260905191624 | 25 | 304 | 3.2 | 8.0 | 0.00 | 0.00 | 0.00 | 65 | 1018.7 |
| 20260905191114 | 25 | 286 | 1.6 | 4.8 | 0.00 | 0.00 | 0.00 | 64 | 1018.6 |
| 20260905190622 | 26 | 236 | 1.6 | 3.2 | 0.00 | 0.00 | 0.00 | 63 | 1018.6 |
| 20260905185557 | 26 | 235 | 0.0 | 3.2 | 0.00 | 0.00 | 0.00 | 62 | 1018.4 |
| 20260905185158 | 26 | 234 | 0.0 | 3.2 | 0.00 | 0.00 | 0.00 | 61 | 1018.4 |
| 20260905183029 | 26 | 300 | 4.8 | 9.7 | 0.00 | 0.00 | 0.00 | 59 | 1018.2 |
| 20260905182600 | 27 | 291 | 3.2 | 9.7 | 0.00 | 0.00 | 0.00 | 58 | 1018.1 |
| 20260905181518 | 27 | 294 | 4.8 | 11.3 | 0.00 | 0.00 | 0.00 | 57 | 1017.9 |
| 20260905181008 | 27 | 274 | 1.6 | 8.0 | 0.00 | 0.00 | 0.00 | 55 | 1017.8 |
| 20260905180457 | 28 | 218 | 1.6 | 11.3 | 0.00 | 0.00 | 0.00 | 52 | 1017.9 |
| 20260905175949 | 28 | 218 | 6.4 | 16.1 | 0.00 | 0.00 | 0.00 | 50 | 1017.8 |
| 20260905175444 | 28 | 298 | 6.4 | 16.1 | 0.00 | 0.00 | 0.00 | 50 | 1017.7 |
| 20260905174929 | 28 | 269 | 4.8 | 11.3 | 0.00 | 0.00 | 0.00 | 46 | 1017.8 |
| 20260905174457 | 28 | 294 | 4.8 | 9.7 | 0.00 | 0.00 | 0.00 | 43 | 1017.7 |
| 20260905173425 | 29 | 268 | 4.8 | 9.7 | 0.00 | 0.00 | 0.00 | 43 | 1017.6 |
| 20260905172924 | 29 | 226 | 4.8 | 11.3 | 0.00 | 0.00 | 0.00 | 42 | 1017.5 |
| 20260905172516 | 29 | 217 | 4.8 | 11.3 | 0.00 | 0.00 | 0.00 | 42 | 1017.5 |
| 20260905170920 | 30 | 194 | 4.8 | 9.7 | 0.00 | 0.00 | 0.00 | 42 | 1017.3 |
| 20260905170417 | 30 | 178 | 4.8 | 11.3 | 0.00 | 0.00 | 0.00 | 42 | 1017.2 |
| 20260905165907 | 30 | 168 | 6.4 | 12.9 | 0.00 | 0.00 | 0.00 | 41 | 1017.2 |
| 20260905165358 | 30 | 186 | 6.4 | 14.5 | 0.00 | 0.00 | 0.00 | 40 | 1017.1 |
| 20260905164848 | 31 | 190 | 8.0 | 16.1 | 0.00 | 0.00 | 0.00 | 40 | 1017.2 |
| 20260905164348 | 31 | 200 | 8.0 | 20.9 | 0.00 | 0.00 | 0.00 | 40 | 1017.2 |
| 20260905163912 | 31 | 198 | 8.0 | 20.9 | 0.00 | 0.00 | 0.00 | 41 | 1017.2 |
| 20260905162842 | 32 | 187 | 6.4 | 12.9 | 0.00 | 0.00 | 0.00 | 41 | 1017.1 |
| 20260905162329 | 32 | 199 | 6.4 | 12.9 | 0.00 | 0.00 | 0.00 | 41 | 1017.1 |
| 20260905161827 | 32 | 204 | 6.4 | 12.9 | 0.00 | 0.00 | 0.00 | 41 | 1017.1 |
| 20260905161329 | 32 | 188 | 6.4 | 12.9 | 0.00 | 0.00 | 0.00 | 41 | 1017.0 |
| 20260905160844 | 33 | 217 | 6.4 | 12.9 | 0.00 | 0.00 | 0.00 | 42 | 1017.0 |
| 20260905155805 | 33 | 229 | 8.0 | 17.7 | 0.00 | 0.00 | 0.00 | 41 | 1017.0 |
| 20260905155256 | 33 | 250 | 8.0 | 16.1 | 0.00 | 0.00 | 0.00 | 39 | 1017.1 |
| 20260905154750 | 33 | 207 | 9.7 | 17.7 | 0.00 | 0.00 | 0.00 | 39 | 1017.0 |
| 20260905154238 | 34 | 200 | 8.0 | 14.5 | 0.00 | 0.00 | 0.00 | 37 | 1016.9 |
| 20260905153730 | 34 | 229 | 8.0 | 14.5 | 0.00 | 0.00 | 0.00 | 37 | 1017.0 |
| 20260905153231 | 35 | 217 | 8.0 | 14.5 | 0.00 | 0.00 | 0.00 | 36 | 1016.9 |
| 20260905152844 | 35 | 256 | 8.0 | 17.7 | 0.00 | 0.00 | 0.00 | 35 | 1016.8 |
| 20260905151223 | 36 | 196 | 4.8 | 16.1 | 0.00 | 0.00 | 0.00 | 33 | 1016.9 |
| 20260905150731 | 35 | 286 | 6.4 | 12.9 | 0.00 | 0.00 | 0.00 | 33 | 1016.9 |
| 20260905145817 | 36 | 211 | 6.4 | 14.5 | 0.00 | 0.00 | 0.00 | 32 | 1016.9 |
| 20260905144642 | 36 | 292 | 6.4 | 11.3 | 0.00 | 0.00 | 0.00 | 33 | 1017.0 |
| 20260905144254 | 36 | 327 | 6.4 | 12.9 | 0.00 | 0.00 | 0.00 | 31 | 1017.1 |
| 20260905143143 | 36 | 275 | 4.8 | 12.9 | 0.00 | 0.00 | 0.00 | 32 | 1017.0 |
| 20260905142639 | 36 | 288 | 4.8 | 9.7 | 0.00 | 0.00 | 0.00 | 30 | 1017.0 |
| 20260905142145 | 36 | 304 | 3.2 | 9.7 | 0.00 | 0.00 | 0.00 | 30 | 1017.1 |
| 20260905141639 | 36 | 210 | 1.6 | 6.4 | 0.00 | 0.00 | 0.00 | 32 | 1017.2 |
| 20260905141139 | 36 | 209 | 1.6 | 6.4 | 0.00 | 0.00 | 0.00 | 29 | 1017.3 |
| 20260905140638 | 36 | 227 | 3.2 | 8.0 | 0.00 | 0.00 | 0.00 | 30 | 1017.3 |
| 20260905140138 | 36 | 351 | 6.4 | 9.7 | 0.00 | 0.00 | 0.00 | 33 | 1017.3 |
| 20260905135633 | 36 | 329 | 6.4 | 9.7 | 0.00 | 0.00 | 0.00 | 31 | 1017.4 |
| 20260905135121 | 36 | 311 | 6.4 | 11.3 | 0.00 | 0.00 | 0.00 | 31 | 1017.5 |
| 20260905134616 | 35 | 261 | 6.4 | 11.3 | 0.00 | 0.00 | 0.00 | 32 | 1017.5 |
| 20260905134157 | 35 | 324 | 6.4 | 14.5 | 0.00 | 0.00 | 0.00 | 32 | 1017.6 |
| 20260905133106 | 35 | 311 | 9.7 | 16.1 | 0.00 | 0.00 | 0.00 | 32 | 1017.7 |
| 20260905132554 | 35 | 315 | 8.0 | 16.1 | 0.00 | 0.00 | 0.00 | 32 | 1017.8 |
| 20260905132047 | 35 | 297 | 8.0 | 17.7 | 0.00 | 0.00 | 0.00 | 32 | 1017.7 |
| 20260905131537 | 35 | 272 | 8.0 | 17.7 | 0.00 | 0.00 | 0.00 | 30 | 1017.8 |
| 20260905131029 | 35 | 302 | 4.8 | 17.7 | 0.00 | 0.00 | 0.00 | 31 | 1017.8 |
| 20260905130525 | 35 | 279 | 6.4 | 11.3 | 0.00 | 0.00 | 0.00 | 29 | 1017.9 |
| 20260905130051 | 35 | 315 | 8.0 | 16.1 | 0.00 | 0.00 | 0.00 | 32 | 1017.9 |
| 20260905125016 | 35 | 335 | 4.8 | 11.3 | 0.00 | 0.00 | 0.00 | 32 | 1018.0 |
| 20260905124504 | 35 | 308 | 4.8 | 9.7 | 0.00 | 0.00 | 0.00 | 31 | 1018.0 |
| 20260905123958 | 35 | 250 | 4.8 | 9.7 | 0.00 | 0.00 | 0.00 | 30 | 1018.0 |
| 20260905123450 | 35 | 287 | 6.4 | 11.3 | 0.00 | 0.00 | 0.00 | 30 | 1018.1 |
| 20260905122939 | 35 | 200 | 6.4 | 14.5 | 0.00 | 0.00 | 0.00 | 30 | 1018.1 |
| 20260905122430 | 35 | 261 | 6.4 | 12.9 | 0.00 | 0.00 | 0.00 | 29 | 1018.2 |
| 20260905121927 | 35 | 286 | 8.0 | 16.1 | 0.00 | 0.00 | 0.00 | 29 | 1018.2 |
| 20260905121426 | 35 | 184 | 4.8 | 16.1 | 0.00 | 0.00 | 0.00 | 27 | 1018.3 |
| 20260905121006 | 35 | 192 | 1.6 | 11.3 | 0.00 | 0.00 | 0.00 | 29 | 1018.3 |
| 20260905115915 | 35 | 154 | 3.2 | 6.4 | 0.00 | 0.00 | 0.00 | 27 | 1018.2 |
| 20260905115438 | 35 | 155 | 1.6 | 6.4 | 0.00 | 0.00 | 0.00 | 33 | 1018.2 |
| 20260905114401 | 35 | 219 | 1.6 | 4.8 | 0.00 | 0.00 | 0.00 | 31 | 1018.3 |
| 20260905113853 | 35 | 219 | 1.6 | 4.8 | 0.00 | 0.00 | 0.00 | 30 | 1018.3 |
| 20260905113405 | 34 | 223 | 1.6 | 4.8 | 0.00 | 0.00 | 0.00 | 31 | 1018.4 |
| 20260905112351 | 33 | 221 | 4.8 | 9.7 | 0.00 | 0.00 | 0.00 | 33 | 1018.4 |
| 20260905111400 | 33 | 294 | 4.8 | 11.3 | 0.00 | 0.00 | 0.00 | 36 | 1018.5 |
| 20260905110321 | 32 | 296 | 6.4 | 11.3 | 0.00 | 0.00 | 0.00 | 39 | 1018.6 |
| 20260905105805 | 32 | 302 | 6.4 | 11.3 | 0.00 | 0.00 | 0.00 | 40 | 1018.6 |
| 20260905105258 | 32 | 325 | 6.4 | 11.3 | 0.00 | 0.00 | 0.00 | 40 | 1018.7 |
| 20260905104755 | 32 | 9 | 6.4 | 9.7 | 0.00 | 0.00 | 0.00 | 43 | 1018.7 |
| 20260905104312 | 32 | 349 | 6.4 | 11.3 | 0.00 | 0.00 | 0.00 | 43 | 1018.9 |
| 20260905103229 | 32 | 350 | 6.4 | 11.3 | 0.00 | 0.00 | 0.00 | 44 | 1018.9 |
| 20260905102727 | 32 | 346 | 8.0 | 11.3 | 0.00 | 0.00 | 0.00 | 41 | 1018.9 |
| 20260905102224 | 32 | 344 | 4.8 | 9.7 | 0.00 | 0.00 | 0.00 | 41 | 1018.7 |
| 20260905101714 | 32 | 348 | 4.8 | 8.0 | 0.00 | 0.00 | 0.00 | 41 | 1018.7 |
| 20260905101204 | 32 | 350 | 4.8 | 9.7 | 0.00 | 0.00 | 0.00 | 40 | 1018.7 |
| 20260905100701 | 32 | 338 | 3.2 | 9.7 | 0.00 | 0.00 | 0.00 | 42 | 1018.6 |
| 20260905100202 | 32 | 337 | 4.8 | 8.0 | 0.00 | 0.00 | 0.00 | 43 | 1018.7 |
| 20260905095719 | 32 | 337 | 4.8 | 8.0 | 0.00 | 0.00 | 0.00 | 41 | 1018.9 |
| 20260905094657 | 32 | 344 | 3.2 | 8.0 | 0.00 | 0.00 | 0.00 | 40 | 1019.0 |
| 20260905094150 | 32 | 338 | 3.2 | 8.0 | 0.00 | 0.00 | 0.00 | 41 | 1019.0 |
| 20260905093638 | 31 | 333 | 4.8 | 8.0 | 0.00 | 0.00 | 0.00 | 43 | 1019.0 |
| 20260905093132 | 31 | 329 | 4.8 | 8.0 | 0.00 | 0.00 | 0.00 | 44 | 1019.2 |
| 20260905092628 | 31 | 332 | 3.2 | 8.0 | 0.00 | 0.00 | 0.00 | 42 | 1019.1 |
| 20260905092128 | 31 | 334 | 3.2 | 8.0 | 0.00 | 0.00 | 0.00 | 43 | 1019.2 |
| 20260905091628 | 30 | 338 | 4.8 | 8.0 | 0.00 | 0.00 | 0.00 | 44 | 1019.2 |
| 20260905091137 | 30 | 339 | 3.2 | 8.0 | 0.00 | 0.00 | 0.00 | 44 | 1019.3 |
| 20260905090143 | 30 | 351 | 1.6 | 6.4 | 0.00 | 0.00 | 0.00 | 49 | 1019.3 |
| 20260905084555 | 28 | 351 | 3.2 | 6.4 | 0.00 | 0.00 | 0.00 | 48 | 1019.3 |
| 20260905084049 | 28 | 351 | 4.8 | 8.0 | 0.00 | 0.00 | 0.00 | 53 | 1019.4 |
| 20260905083537 | 28 | 341 | 4.8 | 9.7 | 0.00 | 0.00 | 0.00 | 52 | 1019.4 |
| 20260905083030 | 28 | 323 | 4.8 | 9.7 | 0.00 | 0.00 | 0.00 | 52 | 1019.4 |
| 20260905082526 | 28 | 310 | 4.8 | 8.0 | 0.00 | 0.00 | 0.00 | 51 | 1019.4 |
| 20260905082028 | 28 | 286 | 4.8 | 8.0 | 0.00 | 0.00 | 0.00 | 53 | 1019.2 |
| 20260905081523 | 27 | 231 | 3.2 | 8.0 | 0.00 | 0.00 | 0.00 | 54 | 1019.1 |
| 20260905081019 | 27 | 200 | 3.2 | 8.0 | 0.00 | 0.00 | 0.00 | 55 | 1019.1 |
| 20260905080504 | 27 | 178 | 3.2 | 6.4 | 0.00 | 0.00 | 0.00 | 55 | 1019.0 |
| 20260905075956 | 27 | 159 | 3.2 | 4.8 | 0.00 | 0.00 | 0.00 | 55 | 1018.9 |
| 20260905075448 | 27 | 157 | 1.6 | 4.8 | 0.00 | 0.00 | 0.00 | 56 | 1019.0 |
| 20260905074938 | 26 | 149 | 1.6 | 4.8 | 0.00 | 0.00 | 0.00 | 57 | 1019.1 |
| 20260905074429 | 26 | 149 | 3.2 | 6.4 | 0.00 | 0.00 | 0.00 | 56 | 1019.0 |
| 20260905073954 | 26 | 149 | 4.8 | 6.4 | 0.00 | 0.00 | 0.00 | 56 | 1019.0 |